This is the latest recevied weather packets stored in our database for station/object G1YBJ-13. If no packets are shown the sender has not sent any weather packets the latest 10 day(s).
| Time | Temp. | Humidity | Pressure | Rain* | Wind** | Luminosity | Snow |
|---|---|---|---|---|---|---|---|
| 1777688353 | 12.78° C | 75% | 1018.1 hPa | - | - | - | - |
| 1777687453 | 12.78° C | 78% | 1018.3 hPa | - | - | - | - |
| 1777686552 | 13.33° C | 75% | 1018.5 hPa | - | - | - | - |
| 1777685650 | 13.33° C | 82% | 1018.8 hPa | - | - | - | - |
| 1777684749 | 13.33° C | 77% | 1018.8 hPa | - | - | - | - |
| 1777683848 | 13.89° C | 76% | 1018.9 hPa | - | - | - | - |
| 1777682946 | 14.44° C | 76% | 1019.1 hPa | - | - | - | - |
| 1777682045 | 15° C | 74% | 1019.1 hPa | - | - | - | - |
| 1777681144 | 15° C | 73% | 1019.1 hPa | - | - | - | - |
| 1777680243 | 15° C | 75% | 1019.2 hPa | - | - | - | - |
| 1777679342 | 15.56° C | 73% | 1019.1 hPa | - | - | - | - |
| 1777678441 | 15.56° C | 74% | 1019.2 hPa | - | - | - | - |
| 1777677540 | 15.56° C | 72% | 1019.2 hPa | - | - | - | - |
| 1777676639 | 15.56° C | 73% | 1019.3 hPa | - | - | - | - |
| 1777675739 | 16.11° C | 72% | 1019.3 hPa | - | - | - | - |
| 1777674836 | 16.11° C | 70% | 1019.2 hPa | - | - | - | - |
| 1777673935 | 16.11° C | 72% | 1019.3 hPa | - | - | - | - |
| 1777673034 | 16.11° C | 71% | 1019.3 hPa | - | - | - | - |
| 1777672133 | 16.11° C | 72% | 1019.3 hPa | - | - | - | - |
| 1777671232 | 16.11° C | 73% | 1019.3 hPa | - | - | - | - |
| 1777670331 | 16.11° C | 73% | 1019.2 hPa | - | - | - | - |
| 1777669429 | 16.67° C | 73% | 1019.1 hPa | - | - | - | - |
| 1777668528 | 16.67° C | 71% | 1019 hPa | - | - | - | - |
| 1777667627 | 16.67° C | 72% | 1018.9 hPa | - | - | - | - |
| 1777666726 | 17.22° C | 71% | 1018.9 hPa | - | - | - | - |
* Rain since midnight (hover to see other rain measurements)
** Current wind speed in m/s (hover to see current wind gust speed)